Time;durP1;ratioP1;P1;durP2;ratioP2;P2;SDS_P1;SDS_P2;PMS_P1;PMS_P2;Temp;Humidity;BMP_temperature;BMP_pressure;BME280_temperature;BME280_humidity;BME280_pressure;Samples;Min_cycle;Max_cycle;Signal;HPM_P1;HPM_P2
2022/05/02 00:01:28;;;;;;;19.38;13.18;;;;;;;8.21;70.96;100336.06;5012128;28;20104;-82
2022/05/02 00:03:53;;;;;;;18.47;11.80;;;;;;;8.05;71.40;100327.53;5004012;28;20515;-82
2022/05/02 00:06:19;;;;;;;25.50;13.80;;;;;;;8.03;71.88;100334.28;5003174;28;20260;-82
2022/05/02 00:08:44;;;;;;;17.67;12.23;;;;;;;8.04;71.64;100330.50;5002696;28;20696;-82
2022/05/02 00:11:09;;;;;;;22.58;12.75;;;;;;;7.95;72.19;100332.75;5001434;28;20302;-81
2022/05/02 00:13:35;;;;;;;18.58;12.25;;;;;;;7.92;71.96;100330.47;5021031;28;20045;-82
2022/05/02 00:16:00;;;;;;;19.90;11.43;;;;;;;8.11;71.61;100330.41;5004905;28;20034;-82
2022/05/02 00:18:27;;;;;;;23.48;11.75;;;;;;;7.98;72.09;100326.00;5007515;28;20029;-81
2022/05/02 00:20:52;;;;;;;25.50;11.10;;;;;;;8.08;71.48;100320.81;5006333;28;20042;-83
2022/05/02 00:23:18;;;;;;;19.70;12.47;;;;;;;8.19;70.84;100319.19;5004461;28;20053;-82
2022/05/02 00:25:43;;;;;;;17.15;11.23;;;;;;;8.30;70.36;100317.50;5006907;28;20736;-82
2022/05/02 00:28:13;;;;;;;21.20;12.20;;;;;;;8.09;71.37;100317.06;5006401;28;20037;-82
2022/05/02 00:30:39;;;;;;;17.13;10.25;;;;;;;8.20;70.99;100315.38;5006512;28;20383;-82
2022/05/02 00:33:04;;;;;;;21.75;11.30;;;;;;;8.15;71.56;100313.41;5005884;28;20112;-81
2022/05/02 00:35:30;;;;;;;24.77;12.20;;;;;;;8.00;71.62;100319.28;5006853;28;20465;-82
2022/05/02 00:37:55;;;;;;;18.90;12.32;;;;;;;7.92;72.06;100316.91;5005186;28;20258;-83
2022/05/02 00:40:21;;;;;;;18.63;9.88;;;;;;;7.92;71.93;100308.75;5006404;28;20485;-81
2022/05/02 00:42:47;;;;;;;16.83;11.70;;;;;;;7.96;71.63;100312.66;5006660;28;20026;-82
2022/05/02 00:45:15;;;;;;;18.88;10.85;;;;;;;7.78;72.12;100303.53;5005679;28;20148;-82
2022/05/02 00:47:40;;;;;;;19.80;10.52;;;;;;;7.85;72.40;100310.75;5006596;28;20436;-81
2022/05/02 00:50:08;;;;;;;17.77;10.73;;;;;;;7.66;73.81;100305.41;5004505;28;20022;-82
2022/05/02 00:52:34;;;;;;;17.63;11.52;;;;;;;7.94;74.17;100303.91;5007336;28;20080;-81
2022/05/02 00:55:00;;;;;;;17.52;10.75;;;;;;;8.02;74.52;100298.16;5004345;28;20050;-81
2022/05/02 00:57:25;;;;;;;17.30;11.10;;;;;;;8.06;75.45;100302.03;5007171;28;20030;-82
2022/05/02 00:59:50;;;;;;;19.77;11.80;;;;;;;8.23;75.44;100301.34;5006066;28;20022;-83
2022/05/02 01:02:16;;;;;;;14.57;10.15;;;;;;;8.22;75.50;100296.13;5004254;28;20520;-80
2022/05/02 01:04:42;;;;;;;19.88;11.38;;;;;;;8.23;75.51;100300.53;5006896;28;20025;-82
2022/05/02 01:07:08;;;;;;;20.10;12.05;;;;;;;8.23;76.33;100301.34;5005068;28;21146;-81
2022/05/02 01:09:35;;;;;;;18.35;11.32;;;;;;;8.15;76.52;100305.25;5021224;28;20172;-82
2022/05/02 01:12:00;;;;;;;18.77;12.77;;;;;;;7.91;77.57;100301.69;5004412;28;20042;-82
2022/05/02 01:14:26;;;;;;;21.48;12.93;;;;;;;7.77;78.59;100301.06;5006023;28;20124;-82
2022/05/02 01:16:51;;;;;;;21.25;12.57;;;;;;;7.56;79.06;100304.09;4995034;28;20404;-82
2022/05/02 01:19:16;;;;;;;17.45;11.55;;;;;;;7.39;78.54;100301.19;4986861;28;20037;-81
2022/05/02 01:21:44;;;;;;;20.33;12.55;;;;;;;7.39;78.57;100294.91;5014830;28;20524;-81
2022/05/02 01:24:09;;;;;;;20.40;12.68;;;;;;;7.30;78.77;100292.53;5001681;28;20022;-83
2022/05/02 01:26:37;;;;;;;21.50;14.23;;;;;;;7.19;78.58;100282.47;5006428;28;20022;-82
2022/05/02 01:29:03;;;;;;;26.27;15.00;;;;;;;7.20;79.10;100294.97;5003900;28;20483;-82
2022/05/02 01:31:29;;;;;;;22.80;13.70;;;;;;;7.23;78.99;100289.09;5005638;28;20026;-81
2022/05/02 01:34:19;;;;;;;18.02;11.60;;;;;;;7.27;78.65;100279.44;5005153;28;20029;-82
2022/05/02 01:36:44;;;;;;;17.95;11.52;;;;;;;7.15;79.29;100286.69;5004845;28;20046;-82
2022/05/02 01:39:09;;;;;;;22.65;12.88;;;;;;;7.21;79.45;100291.19;5005311;28;20022;-82
2022/05/02 01:41:35;;;;;;;24.88;14.05;;;;;;;7.31;79.06;100283.34;5002787;28;20077;-82
2022/05/02 01:44:00;;;;;;;17.77;10.70;;;;;;;7.41;78.46;100285.50;5005836;28;20049;-82
2022/05/02 01:46:25;;;;;;;22.10;11.97;;;;;;;7.65;77.08;100274.72;5003588;28;20450;-81
2022/05/02 01:48:50;;;;;;;18.97;11.40;;;;;;;7.84;76.32;100277.34;5005631;28;20267;-82
2022/05/02 01:51:16;;;;;;;19.93;12.07;;;;;;;7.77;76.77;100273.91;5004039;28;20753;-82
2022/05/02 01:53:42;;;;;;;23.10;12.87;;;;;;;7.70;76.48;100277.56;5005022;28;20267;-81
2022/05/02 01:56:07;;;;;;;21.00;12.77;;;;;;;7.74;76.85;100269.78;5005384;28;20291;-82
2022/05/02 01:58:33;;;;;;;21.23;12.43;;;;;;;7.74;76.95;100277.91;5002858;28;20030;-82
2022/05/02 02:00:58;;;;;;;19.30;10.52;;;;;;;7.79;76.64;100278.03;5005384;28;20326;-82
2022/05/02 02:03:24;;;;;;;20.35;11.32;;;;;;;7.92;76.51;100278.88;5002880;28;20358;-82
2022/05/02 02:05:49;;;;;;;23.43;14.13;;;;;;;7.85;76.22;100268.13;5005442;28;20049;-80
2022/05/02 02:08:20;;;;;;;20.77;13.20;;;;;;;7.93;76.78;100273.22;5003338;28;20377;-82
2022/05/02 02:10:46;;;;;;;21.17;12.27;;;;;;;8.01;76.11;100266.63;5004571;28;20049;-81
2022/05/02 02:13:13;;;;;;;18.85;12.80;;;;;;;8.12;75.65;100266.84;5003043;28;20033;-84
2022/05/02 02:15:38;;;;;;;23.40;13.85;;;;;;;8.03;75.95;100267.19;5004177;28;20037;-81
2022/05/02 02:18:03;;;;;;;19.85;13.57;;;;;;;8.05;76.17;100267.78;4985487;28;20030;-82
2022/05/02 02:20:29;;;;;;;28.25;14.95;;;;;;;8.10;75.88;100267.09;4987600;28;20030;-82
2022/05/02 02:22:55;;;;;;;20.73;13.02;;;;;;;8.01;75.61;100272.06;5004313;28;20122;-82
2022/05/02 02:25:20;;;;;;;21.05;12.75;;;;;;;7.92;76.00;100262.59;5003984;28;20358;-81
2022/05/02 02:27:46;;;;;;;23.08;13.27;;;;;;;8.04;75.98;100271.59;5004886;28;20057;-82
2022/05/02 02:30:11;;;;;;;20.50;11.93;;;;;;;8.01;75.96;100272.06;5004274;28;20026;-82
2022/05/02 02:32:37;;;;;;;22.50;13.32;;;;;;;7.98;75.55;100263.53;5005158;28;20029;-82
2022/05/02 02:35:02;;;;;;;17.08;13.20;;;;;;;7.93;75.63;100261.53;5004444;28;20026;-82
2022/05/02 02:37:28;;;;;;;22.42;14.10;;;;;;;7.92;75.75;100258.00;5000135;28;20065;-82
2022/05/02 02:39:53;;;;;;;19.70;12.67;;;;;;;7.90;76.15;100259.28;5004803;28;20026;-82
2022/05/02 02:42:18;;;;;;;20.17;12.63;;;;;;;7.71;76.26;100259.38;5002169;28;20270;-82
2022/05/02 02:44:43;;;;;;;24.13;14.33;;;;;;;7.86;76.24;100258.09;5004492;28;20711;-82
2022/05/02 02:47:09;;;;;;;21.95;10.38;;;;;;;7.82;75.36;100260.47;5002802;28;20282;-82
2022/05/02 02:49:34;;;;;;;24.30;13.00;;;;;;;7.96;74.86;100258.34;5003907;28;20042;-81
2022/05/02 02:51:59;;;;;;;20.33;11.48;;;;;;;7.74;75.48;100256.19;5002838;28;20273;-82
2022/05/02 02:54:25;;;;;;;22.60;12.85;;;;;;;7.56;75.84;100257.13;5003686;28;20030;-82
2022/05/02 02:57:04;;;;;;;20.60;12.05;;;;;;;7.48;76.13;100255.56;5003750;28;20121;-82
2022/05/02 02:59:30;;;;;;;22.33;14.30;;;;;;;7.38;76.23;100252.59;5002731;28;20551;-82
2022/05/02 03:01:56;;;;;;;20.05;14.57;;;;;;;7.18;76.76;100249.09;5003311;28;20365;-81
2022/05/02 03:07:05;;;;;;;21.35;12.30;;;;;;;7.11;77.24;100241.06;5004190;28;20029;-82
2022/05/02 03:09:31;;;;;;;21.80;13.07;;;;;;;7.13;76.94;100246.25;5003854;28;20033;-82
2022/05/02 03:11:58;;;;;;;22.98;13.38;;;;;;;7.28;75.93;100242.31;5002551;28;20515;-82
2022/05/02 03:14:23;;;;;;;18.85;12.07;;;;;;;7.31;76.22;100241.81;5004395;28;20060;-82
2022/05/02 03:16:48;;;;;;;21.08;12.75;;;;;;;7.20;76.39;100243.47;5004129;28;20069;-82
2022/05/02 03:19:13;;;;;;;21.60;13.70;;;;;;;6.99;76.90;100240.19;5024023;28;20063;-82
2022/05/02 03:21:39;;;;;;;19.83;14.07;;;;;;;6.95;77.32;100241.69;5008865;28;20096;-82
2022/05/02 03:24:05;;;;;;;22.23;14.43;;;;;;;6.69;77.73;100238.28;5002606;28;20030;-82
2022/05/02 03:26:30;;;;;;;28.25;14.85;;;;;;;6.57;78.03;100244.44;5003346;28;20488;-82
2022/05/02 03:28:55;;;;;;;19.95;12.93;;;;;;;6.70;77.77;100237.19;5003234;28;20227;-82
2022/05/02 03:31:20;;;;;;;21.08;13.88;;;;;;;6.69;77.58;100233.66;5003710;28;20037;-81
2022/05/02 03:33:46;;;;;;;21.05;13.48;;;;;;;6.55;77.88;100233.00;5002657;28;20084;-82
2022/05/02 03:36:11;;;;;;;27.23;16.38;;;;;;;6.62;77.87;100230.22;5004079;28;20034;-81
2022/05/02 03:38:37;;;;;;;22.25;13.75;;;;;;;6.75;78.14;100235.47;5002425;28;20045;-80
2022/05/02 03:41:02;;;;;;;23.77;14.57;;;;;;;6.75;77.62;100229.22;5002498;28;20026;-82
2022/05/02 03:43:27;;;;;;;22.00;13.85;;;;;;;6.72;78.29;100235.09;5002889;28;20026;-82
2022/05/02 03:45:52;;;;;;;23.27;14.07;;;;;;;6.66;78.45;100231.41;5018870;28;20491;-82
2022/05/02 03:48:18;;;;;;;20.00;12.75;;;;;;;6.68;78.63;100228.47;5005457;28;20452;-82
2022/05/02 03:50:43;;;;;;;20.70;14.98;;;;;;;6.59;78.51;100226.06;5006382;28;20554;-82
2022/05/02 03:53:21;;;;;;;24.30;14.15;;;;;;;6.64;77.97;100222.69;5007072;28;20026;-82
2022/05/02 03:55:47;;;;;;;22.67;13.45;;;;;;;6.70;78.12;100226.34;5005965;28;20026;-82
2022/05/02 03:58:13;;;;;;;26.38;15.35;;;;;;;6.86;77.59;100228.44;5008261;28;20025;-82
2022/05/02 04:00:38;;;;;;;25.27;14.60;;;;;;;6.80;78.02;100220.41;5005551;28;20111;-82
2022/05/02 04:03:04;;;;;;;19.85;13.05;;;;;;;6.67;78.72;100227.66;5006913;28;20112;-80
2022/05/02 04:05:29;;;;;;;24.33;13.75;;;;;;;6.57;78.54;100222.75;5007243;28;20026;-82
2022/05/02 04:07:55;;;;;;;22.08;13.82;;;;;;;6.68;78.64;100228.47;5006222;28;20088;-81
2022/05/02 04:10:20;;;;;;;22.48;13.40;;;;;;;6.61;78.61;100232.09;5006977;28;20050;-82
2022/05/02 04:12:46;;;;;;;21.55;13.27;;;;;;;6.56;78.88;100226.53;5005636;28;20022;-83
2022/05/02 04:15:12;;;;;;;21.50;13.63;;;;;;;6.77;78.63;100222.50;5022357;28;20436;-81
2022/05/02 04:17:38;;;;;;;21.08;14.15;;;;;;;6.82;78.41;100229.97;5013775;28;20041;-82
2022/05/02 04:20:05;;;;;;;24.90;14.48;;;;;;;6.86;78.55;100231.16;5026790;28;20029;-82
2022/05/02 04:22:30;;;;;;;24.15;13.90;;;;;;;6.98;79.02;100228.50;5006160;28;20042;-82
2022/05/02 04:24:56;;;;;;;28.60;15.32;;;;;;;6.93;78.69;100216.69;5006622;28;20083;-82
2022/05/02 04:27:21;;;;;;;23.60;14.73;;;;;;;6.94;79.38;100215.63;5007294;28;20037;-81
2022/05/02 04:29:46;;;;;;;46.28;14.88;;;;;;;7.20;78.34;100224.47;5005527;28;20037;-80
2022/05/02 04:32:12;;;;;;;25.00;13.32;;;;;;;7.26;78.55;100225.44;5006633;28;20192;-82
2022/05/02 04:34:37;;;;;;;25.05;13.13;;;;;;;7.21;78.78;100226.94;5005887;28;20057;-81
2022/05/02 04:37:03;;;;;;;22.90;15.38;;;;;;;7.21;78.76;100231.53;5006632;28;20030;-82
2022/05/02 04:39:28;;;;;;;21.52;13.57;;;;;;;7.42;78.04;100234.78;5005608;28;20084;-82
2022/05/02 04:41:53;;;;;;;24.23;14.75;;;;;;;7.40;77.93;100237.75;5006157;28;20087;-82
2022/05/02 04:44:19;;;;;;;34.53;17.63;;;;;;;7.36;77.79;100231.13;5005796;28;20081;-83
2022/05/02 04:46:44;;;;;;;24.08;13.70;;;;;;;7.29;78.31;100236.63;5005450;28;20427;-81
2022/05/02 04:49:09;;;;;;;25.77;13.93;;;;;;;7.34;78.71;100225.09;5006787;28;20026;-81
2022/05/02 04:51:34;;;;;;;26.23;15.82;;;;;;;7.32;78.93;100232.63;5003959;28;20846;-82
2022/05/02 04:54:00;;;;;;;25.20;15.07;;;;;;;7.33;79.21;100231.56;5006802;28;20394;-82
2022/05/02 04:56:25;;;;;;;29.73;14.95;;;;;;;7.55;78.18;100231.84;5004615;28;20716;-82
2022/05/02 04:58:50;;;;;;;23.48;16.23;;;;;;;7.53;77.75;100228.56;5005697;28;20040;-82
2022/05/02 05:01:16;;;;;;;24.80;14.68;;;;;;;7.73;77.64;100232.81;5003401;28;20037;-83
2022/05/02 05:03:42;;;;;;;24.55;13.75;;;;;;;7.83;77.01;100233.06;5006014;28;20633;-82
2022/05/02 05:06:07;;;;;;;27.60;14.80;;;;;;;7.96;76.61;100236.63;5006888;28;20022;-82
2022/05/02 05:08:32;;;;;;;24.55;14.38;;;;;;;8.15;75.45;100233.78;5004891;28;20177;-82
2022/05/02 05:11:19;;;;;;;23.95;13.10;;;;;;;8.27;75.68;100226.47;5005931;28;20034;-82
2022/05/02 05:17:19;;;;;;;23.23;13.73;;;;;;;8.39;74.78;100229.16;5015448;28;20183;-82
2022/05/02 05:19:53;;;;;;;21.17;12.57;;;;;;;8.49;73.94;100225.84;5006398;28;20045;-82
2022/05/02 05:22:18;;;;;;;23.90;14.82;;;;;;;8.54;74.38;100225.13;5022347;28;20036;-82
2022/05/02 05:25:06;;;;;;;18.40;13.10;;;;;;;8.40;74.98;100224.56;5006489;28;20030;-82
2022/05/02 05:27:53;;;;;;;21.83;13.98;;;;;;;8.59;74.62;100224.41;5004842;28;20026;-82
2022/05/02 05:30:23;;;;;;;18.90;12.90;;;;;;;8.63;74.35;100228.31;5003737;28;20034;-82
2022/05/02 05:33:16;;;;;;;24.60;13.75;;;;;;;8.69;74.06;100215.66;5006016;28;20112;-82
2022/05/02 05:36:03;;;;;;;24.33;16.13;;;;;;;8.75;73.28;100212.81;5003040;28;20137;-81
2022/05/02 05:38:41;;;;;;;24.88;13.77;;;;;;;8.92;73.16;100220.19;5002965;28;20084;-83
2022/05/02 05:41:24;;;;;;;25.70;15.07;;;;;;;8.95;73.50;100219.69;5003609;28;20098;-82
2022/05/02 05:44:05;;;;;;;25.15;15.85;;;;;;;8.94;73.67;100219.94;5001847;28;20471;-82
2022/05/02 05:46:52;;;;;;;19.92;13.57;;;;;;;9.07;72.30;100224.28;5003282;28;20066;-82
2022/05/02 05:49:52;;;;;;;24.70;14.70;;;;;;;9.04;72.99;100236.47;5004505;28;20025;-82
2022/05/02 05:52:49;;;;;;;27.60;16.48;;;;;;;8.96;73.97;100232.25;5001283;28;20033;-82
2022/05/02 05:55:28;;;;;;;21.98;13.88;;;;;;;8.74;73.83;100224.75;5005290;28;20475;-83
2022/05/02 05:58:16;;;;;;;22.55;13.82;;;;;;;8.89;73.14;100225.28;5005420;28;20034;-84
2022/05/02 06:00:44;;;;;;;22.77;12.82;;;;;;;9.10;72.74;100231.94;5003467;28;20060;-83
2022/05/02 06:03:23;;;;;;;19.20;13.25;;;;;;;9.26;72.76;100226.78;5005393;28;20030;-82
2022/05/02 06:05:49;;;;;;;22.20;12.70;;;;;;;9.49;70.99;100227.72;5003234;28;20564;-83
2022/05/02 06:08:17;;;;;;;18.75;11.82;;;;;;;9.67;69.95;100213.88;5003595;28;20030;-83
2022/05/02 06:10:43;;;;;;;22.83;12.80;;;;;;;9.82;69.19;100226.09;5003771;28;20045;-83
2022/05/02 06:13:09;;;;;;;17.90;11.30;;;;;;;9.90;67.66;100219.38;5003745;28;20420;-83
2022/05/02 06:18:28;;;;;;;23.60;11.82;;;;;;;10.04;67.49;100230.75;5018189;28;20474;-83
2022/05/02 06:20:59;;;;;;;22.40;13.38;;;;;;;9.99;68.72;100230.66;5017444;28;20494;-83
2022/05/02 06:23:29;;;;;;;22.60;13.52;;;;;;;9.76;69.48;100232.53;5004291;28;20729;-83
2022/05/02 06:25:56;;;;;;;24.88;12.70;;;;;;;9.88;68.39;100230.53;5003983;28;20095;-83
2022/05/02 06:28:25;;;;;;;20.08;11.30;;;;;;;9.92;69.05;100230.88;5003932;28;20034;-83
2022/05/02 06:30:55;;;;;;;23.05;13.73;;;;;;;10.07;69.77;100227.53;5001662;28;20033;-83
2022/05/02 06:33:23;;;;;;;22.33;11.95;;;;;;;10.32;68.57;100226.25;5005025;28;20033;-82
2022/05/02 06:36:18;;;;;;;20.05;12.23;;;;;;;10.35;67.44;100223.00;5003163;28;20100;-82
2022/05/02 06:38:55;;;;;;;27.35;15.10;;;;;;;10.31;68.12;100221.88;5003792;28;20437;-83
2022/05/02 06:41:30;;;;;;;25.08;12.70;;;;;;;10.48;67.32;100231.91;5004867;28;20053;-83
2022/05/02 06:44:05;;;;;;;22.33;11.85;;;;;;;10.43;67.42;100224.50;5003320;28;20473;-84
2022/05/02 06:46:51;;;;;;;19.17;11.07;;;;;;;10.51;66.49;100221.34;5004535;28;20029;-83
2022/05/02 06:49:16;;;;;;;17.88;10.30;;;;;;;10.67;66.53;100234.34;5004021;28;20113;-84
2022/05/02 06:51:55;;;;;;;27.08;12.35;;;;;;;10.60;66.92;100229.91;5003241;28;20105;-84
2022/05/02 06:55:02;;;;;;;25.77;11.32;;;;;;;10.85;66.02;100228.56;5004040;28;20041;-83
2022/05/02 06:57:52;;;;;;;21.52;11.63;;;;;;;10.88;66.00;100229.16;5001337;28;20053;-84
2022/05/02 07:00:19;;;;;;;21.65;13.20;;;;;;;10.80;65.90;100233.16;5002522;28;20034;-83
2022/05/02 07:03:23;;;;;;;19.38;12.50;;;;;;;10.88;64.69;100227.25;5002799;28;20492;-84
2022/05/02 07:06:08;;;;;;;20.50;12.55;;;;;;;11.04;64.87;100224.69;4989535;28;20488;-83
2022/05/02 07:09:01;;;;;;;19.70;12.77;;;;;;;11.19;65.82;100221.28;5004364;28;20117;-83
2022/05/02 07:12:11;;;;;;;19.55;10.65;;;;;;;11.13;64.55;100230.47;5003361;28;20583;-83
2022/05/02 07:15:04;;;;;;;16.85;10.50;;;;;;;11.05;64.22;100235.34;5002223;28;20030;-84
2022/05/02 07:17:35;;;;;;;17.35;10.48;;;;;;;11.17;63.95;100237.06;5007520;28;20029;-83
2022/05/02 07:20:05;;;;;;;19.85;10.75;;;;;;;11.32;63.70;100233.69;5023184;28;20099;-83
2022/05/02 07:22:49;;;;;;;16.23;9.85;;;;;;;11.30;63.36;100230.41;5002449;28;20504;-83
2022/05/02 07:25:20;;;;;;;25.03;11.13;;;;;;;11.37;62.97;100235.66;5008714;28;20022;-83
2022/05/02 07:27:57;;;;;;;14.40;9.52;;;;;;;11.48;62.52;100229.19;5006471;28;20025;-83
2022/05/02 07:30:24;;;;;;;14.68;8.98;;;;;;;11.42;61.16;100230.22;5007221;28;20067;-84
2022/05/02 07:32:53;;;;;;;15.65;9.02;;;;;;;11.41;62.59;100231.31;5007124;28;20065;-84
2022/05/02 07:35:21;;;;;;;14.00;8.55;;;;;;;11.48;62.29;100234.66;5006392;28;20025;-84
2022/05/02 07:37:47;;;;;;;12.95;8.98;;;;;;;11.59;62.82;100237.47;5005796;28;20368;-83
2022/05/02 07:40:14;;;;;;;15.18;9.18;;;;;;;11.86;62.02;100234.69;5005908;28;20117;-83
2022/05/02 07:42:42;;;;;;;20.63;10.57;;;;;;;11.81;61.82;100229.19;5023438;28;20030;-84
2022/05/02 07:45:10;;;;;;;16.73;10.95;;;;;;;11.89;62.08;100241.53;5021312;28;20022;-84
2022/05/02 07:47:37;;;;;;;19.25;11.85;;;;;;;11.87;63.05;100230.03;5006944;28;20374;-83
2022/05/02 07:50:05;;;;;;;21.27;12.35;;;;;;;11.97;63.06;100232.84;5007438;28;20061;-84
2022/05/02 07:52:33;;;;;;;18.67;9.88;;;;;;;12.03;62.49;100236.44;5006044;28;20111;-85
2022/05/02 07:55:00;;;;;;;22.85;11.23;;;;;;;11.98;63.71;100228.22;5007606;28;20026;-84
2022/05/02 07:57:28;;;;;;;17.38;11.57;;;;;;;11.95;64.01;100226.81;5004670;28;20612;-84
2022/05/02 07:59:55;;;;;;;16.33;10.20;;;;;;;11.93;65.09;100229.00;5007334;28;20030;-84
2022/05/02 08:02:22;;;;;;;24.20;11.52;;;;;;;12.00;64.16;100220.59;5005665;28;20038;-84
2022/05/02 08:04:47;;;;;;;15.07;9.45;;;;;;;11.99;63.77;100236.16;5007349;28;20053;-84
2022/05/02 08:07:31;;;;;;;18.77;11.13;;;;;;;11.67;64.06;100234.28;5007367;28;20022;-84
2022/05/02 08:10:17;;;;;;;17.23;11.20;;;;;;;11.70;63.73;100233.75;5005840;28;20380;-84
2022/05/02 08:12:57;;;;;;;18.95;12.52;;;;;;;11.64;63.85;100232.03;4996617;28;20031;-84
2022/05/02 08:15:35;;;;;;;18.75;10.20;;;;;;;11.83;63.62;100224.28;4986622;28;20038;-84
2022/05/02 08:18:32;;;;;;;18.27;10.98;;;;;;;11.90;63.69;100229.50;5010404;28;20025;-84
2022/05/02 08:21:02;;;;;;;16.92;10.48;;;;;;;11.77;62.95;100228.06;5019229;28;20156;-84
2022/05/02 08:27:31;;;;;;;17.00;9.57;;;;;;;11.98;62.35;100223.56;5005693;28;20068;-84
2022/05/02 08:30:17;;;;;;;15.00;8.15;;;;;;;12.05;62.36;100222.50;5007399;28;20493;-84
2022/05/02 08:32:59;;;;;;;14.82;9.98;;;;;;;12.09;62.55;100223.63;4999291;28;20157;-84
2022/05/02 08:35:43;;;;;;;17.20;10.57;;;;;;;12.20;62.82;100214.44;5004649;28;20032;-84
2022/05/02 08:38:35;;;;;;;16.63;10.77;;;;;;;12.24;62.79;100223.75;5006991;28;20036;-85
2022/05/02 08:41:10;;;;;;;13.25;8.25;;;;;;;12.33;62.02;100213.13;5005472;28;20045;-84
2022/05/02 08:44:13;;;;;;;18.23;10.75;;;;;;;12.41;62.18;100219.19;5006133;28;20022;-84
2022/05/02 08:47:08;;;;;;;18.45;9.35;;;;;;;12.48;62.29;100217.88;5006680;28;20113;-84
2022/05/02 08:50:11;;;;;;;16.25;10.50;;;;;;;12.47;62.00;100210.75;5004789;28;20033;-85
2022/05/02 08:53:14;;;;;;;13.90;8.98;;;;;;;12.67;61.42;100220.09;4986181;28;20026;-84
2022/05/02 08:56:08;;;;;;;17.67;8.65;;;;;;;12.67;61.07;100211.09;4992753;28;20516;-84
2022/05/02 08:58:49;;;;;;;22.70;11.38;;;;;;;12.73;60.38;100215.50;5002586;28;20026;-83
2022/05/02 09:01:39;;;;;;;21.50;10.85;;;;;;;12.86;61.16;100214.16;5002329;28;20552;-84
2022/05/02 09:04:31;;;;;;;14.75;9.13;;;;;;;13.03;60.61;100208.47;5017524;28;20125;-84
2022/05/02 09:07:16;;;;;;;12.00;7.90;;;;;;;13.06;59.64;100207.09;5005244;28;20045;-84
2022/05/02 09:10:05;;;;;;;;;;;;;;;13.21;60.23;100210.94;5006062;28;20111;-85
2022/05/02 09:12:55;;;;;;;12.60;7.72;;;;;;;13.29;59.57;100202.19;5006082;28;19956;-83
2022/05/02 09:15:42;;;;;;;14.63;9.05;;;;;;;13.37;59.29;100204.41;5004639;28;20061;-84
2022/05/02 09:18:46;;;;;;;15.07;8.25;;;;;;;13.47;59.74;100208.22;5018103;28;20071;-85
2022/05/02 09:21:29;;;;;;;12.93;8.02;;;;;;;13.54;58.53;100204.19;5015105;28;20034;-84
2022/05/02 09:24:01;;;;;;;14.93;10.05;;;;;;;13.64;59.03;100200.59;5019710;28;20048;-85
2022/05/02 09:26:55;;;;;;;17.65;9.07;;;;;;;13.68;58.26;100205.53;5005528;28;20026;-84
2022/05/02 09:30:04;;;;;;;14.80;8.13;;;;;;;13.60;57.44;100199.50;5006105;28;20118;-83
2022/05/02 09:33:02;;;;;;;14.93;7.75;;;;;;;13.94;58.34;100205.50;4972524;28;20079;-84
2022/05/02 09:35:35;;;;;;;15.38;8.13;;;;;;;13.93;57.33;100203.88;4985953;28;20061;-85
2022/05/02 09:38:29;;;;;;;19.20;8.30;;;;;;;13.97;57.91;100202.22;4984897;28;20034;-85
2022/05/02 09:41:19;;;;;;;14.25;8.10;;;;;;;14.10;57.05;100198.06;4990027;28;20064;-84
2022/05/02 09:50:34;;;;;;;15.68;8.20;;;;;;;14.47;56.75;100187.78;4999411;28;20526;-84
2022/05/02 09:53:28;;;;;;;14.70;8.27;;;;;;;14.60;56.52;100183.63;5004936;28;20037;-84
2022/05/02 09:59:02;;;;;;;16.40;9.07;;;;;;;14.74;56.19;100174.78;4998481;28;20071;-85
2022/05/02 10:01:31;;;;;;;14.10;7.68;;;;;;;14.80;56.17;100184.63;5005001;28;20037;-84
2022/05/02 10:04:18;;;;;;;14.18;8.23;;;;;;;14.77;55.86;100172.28;5020676;28;20045;-85
2022/05/02 10:06:51;;;;;;;15.80;8.93;;;;;;;14.90;56.09;100172.78;5003974;28;20481;-83
2022/05/02 10:09:38;;;;;;;16.00;9.00;;;;;;;15.00;55.95;100172.72;5005761;28;20380;-85
2022/05/02 10:12:11;;;;;;;14.93;8.82;;;;;;;15.07;55.67;100166.09;5003565;28;20046;-85
2022/05/02 10:14:52;;;;;;;15.85;7.72;;;;;;;15.24;55.02;100171.19;5004044;28;20034;-85
2022/05/02 10:17:45;;;;;;;15.90;8.82;;;;;;;15.09;54.71;100158.41;5003963;28;20583;-85
2022/05/02 10:20:20;;;;;;;18.52;8.65;;;;;;;15.24;55.21;100161.03;5001452;28;20038;-85
2022/05/02 10:23:23;;;;;;;13.45;8.30;;;;;;;15.40;54.79;100169.13;5002819;28;20022;-84
2022/05/02 10:26:14;;;;;;;12.60;8.50;;;;;;;15.62;54.57;100160.41;5004895;28;20037;-84
2022/05/02 10:28:51;;;;;;;11.45;8.25;;;;;;;15.61;54.82;100169.78;5017444;28;20077;-85
2022/05/02 10:31:21;;;;;;;13.73;8.90;;;;;;;15.55;54.70;100159.13;5003340;28;20066;-85
2022/05/02 10:33:50;;;;;;;14.43;9.65;;;;;;;15.58;54.77;100153.84;5004506;28;20026;-85
2022/05/02 10:36:19;;;;;;;16.70;8.45;;;;;;;15.74;53.43;100157.28;5004153;28;20041;-84
2022/05/02 10:41:47;;;;;;;16.70;9.23;;;;;;;15.93;53.48;100153.78;5002592;28;20142;-85
2022/05/02 10:44:16;;;;;;;14.98;9.18;;;;;;;16.03;53.08;100149.34;5004324;28;20053;-84
2022/05/02 10:46:44;;;;;;;26.17;10.40;;;;;;;16.17;52.57;100144.75;5004885;28;20491;-84
2022/05/02 10:49:41;;;;;;;23.95;9.23;;;;;;;16.03;53.51;100146.59;5004111;28;20037;-85
2022/05/02 10:52:07;;;;;;;14.77;9.48;;;;;;;16.11;53.25;100143.16;5004935;28;20034;-84
2022/05/02 10:54:56;;;;;;;17.83;10.35;;;;;;;16.20;52.96;100146.09;5003527;28;20356;-84
2022/05/02 10:57:49;;;;;;;15.10;9.60;;;;;;;16.16;51.93;100140.38;5003767;28;20058;-84
2022/05/02 11:00:15;;;;;;;14.43;9.80;;;;;;;16.23;51.60;100140.03;4997583;28;20041;-85
2022/05/02 11:02:56;;;;;;;32.25;12.63;;;;;;;16.40;52.36;100133.19;5002575;28;20264;-85
2022/05/02 11:05:31;;;;;;;16.13;9.93;;;;;;;16.47;52.16;100132.84;5003364;28;20038;-84
2022/05/02 11:08:09;;;;;;;16.48;10.90;;;;;;;16.60;52.08;100126.59;5003814;28;20045;-85
2022/05/02 11:10:42;;;;;;;20.40;10.48;;;;;;;16.65;52.29;100133.97;5003791;28;20463;-84
2022/05/02 11:13:20;;;;;;;13.18;10.13;;;;;;;16.62;51.06;100134.56;5019211;28;20405;-85
2022/05/02 11:16:00;;;;;;;14.07;9.50;;;;;;;16.61;51.28;100131.00;5002782;28;20096;-85
2022/05/02 11:21:42;;;;;;;14.07;9.02;;;;;;;17.24;50.70;100127.31;5003611;28;20065;-85
2022/05/02 11:24:25;;;;;;;16.33;9.52;;;;;;;17.00;51.14;100118.00;4999875;28;20057;-84
2022/05/02 11:27:08;;;;;;;22.73;11.77;;;;;;;17.09;50.20;100114.59;5002074;28;20113;-83
2022/05/02 11:29:48;;;;;;;13.95;8.90;;;;;;;17.19;49.86;100116.41;5014959;28;20036;-84
2022/05/02 11:32:36;;;;;;;16.88;10.32;;;;;;;17.33;49.37;100105.44;5001242;28;20488;-84
2022/05/02 11:35:14;;;;;;;14.27;8.30;;;;;;;17.25;49.94;100099.47;5004137;28;20046;-85
2022/05/02 11:37:53;;;;;;;18.60;10.07;;;;;;;17.19;50.35;100102.63;5002755;28;20037;-83
2022/05/02 11:40:25;;;;;;;17.80;9.38;;;;;;;17.12;50.07;100101.06;5007273;28;20038;-84
2022/05/02 11:42:50;;;;;;;22.95;11.57;;;;;;;17.38;50.59;100100.63;5006903;28;20039;-84
2022/05/02 11:45:17;;;;;;;13.05;8.95;;;;;;;17.44;49.74;100092.25;5006438;28;20067;-83
2022/05/02 11:47:51;;;;;;;17.45;8.10;;;;;;;17.36;50.08;100096.53;5007795;28;20029;-82
2022/05/02 11:50:35;;;;;;;15.43;9.65;;;;;;;17.29;50.48;100093.38;4988115;28;20053;-84
2022/05/02 11:53:08;;;;;;;15.07;9.45;;;;;;;17.23;50.11;100090.69;5002613;28;20046;-86
2022/05/02 11:55:35;;;;;;;14.90;9.52;;;;;;;17.53;49.37;100084.94;5001874;28;20051;-84
2022/05/02 11:58:05;;;;;;;18.20;9.82;;;;;;;17.57;49.14;100085.16;5002941;28;20022;-84
2022/05/02 12:00:33;;;;;;;14.57;9.40;;;;;;;17.78;48.18;100085.56;5003091;28;20060;-84
2022/05/02 12:03:10;;;;;;;17.25;9.27;;;;;;;18.00;47.83;100077.72;5002220;28;20018;-82
2022/05/02 12:05:41;;;;;;;13.13;8.50;;;;;;;17.95;47.98;100081.38;5001549;28;21261;-84
2022/05/02 12:08:09;;;;;;;14.55;9.43;;;;;;;17.93;47.78;100086.38;5002613;28;20536;-84
2022/05/02 12:10:43;;;;;;;13.73;9.00;;;;;;;18.05;46.57;100081.16;5006547;28;20209;-83
2022/05/02 12:13:14;;;;;;;13.27;8.35;;;;;;;18.00;47.48;100075.75;5006595;28;20096;-84